CheckWX is a tool to help pilots better visualize weather data.  It is not intended as a substitute for an official pre-flight weather briefing.

00:37:19 UTC

EHAK METAR
A12-cpp Sea
A12-cpp Sea, The Netherlands
Current

42 mins ago

EHAK 222355Z AUTO 22025KT 9999 FEW036/// BKN042/// BKN048/// 18/16 Q1019 W///H///
Observed
Aug-22 @ 23:55 UTC
Wind
  • 220° at 25 KTS
Visibility
10,000+ meters
Flight Rules
VFR
Cloud Levels
  • Few at 3,600' AGL
  • Broken at 4,200' AGL
  • Broken at 4,800' AGL
Temperature
18°C / 64°F
Dewpoint
16°C / 61°F
Humidity
88%
Altimeter
30.09" Hg
Pressure
1018.92 hPa
Previous

1 hour ago

EHAK 222325Z AUTO 22025KT 9999 FEW032/// SCT037/// BKN042/// 18/16 Q1019 W///H///
Observed
Aug-22 @ 23:25 UTC
Wind
  • 220° at 25 KTS
Visibility
10,000+ meters
Flight Rules
VFR
Cloud Levels
  • Few at 3,200' AGL
  • Scattered at 3,700' AGL
  • Broken at 4,200' AGL
Temperature
18°C / 64°F
Dewpoint
16°C / 61°F
Humidity
88%
Altimeter
30.09" Hg
Pressure
1018.92 hPa
Previous

2 hours ago

EHAK 222255Z AUTO 22023KT 9999 SCT032/// BKN037/// 18/16 Q1019 W///H///
Observed
Aug-22 @ 22:55 UTC
Wind
  • 220° at 23 KTS
Visibility
10,000+ meters
Flight Rules
VFR
Cloud Levels
  • Scattered at 3,200' AGL
  • Broken at 3,700' AGL
Temperature
18°C / 64°F
Dewpoint
16°C / 61°F
Humidity
88%
Altimeter
30.09" Hg
Pressure
1018.92 hPa